This demonstration page uses our WeatherBlox Daily Observations layout. Learn more.

36.17497, -115.13722

Hourly Observations for July 22, 2018

Temp ( °F °C ) Dew Point ( °F °C ) Humidity (%) Winds ( mph kmh ) Pressure ( in mb ) Visibility ( mi km ) Precip ( " mm )
12:53 am 00:53 Mostly Cloudy 83 28.3 58 14.4 43 43 Calm 29.97 1015 10 16.09344 0 0
1:53 am 01:53 Mostly Clear 82 27.8 59 15 46 46 Calm 29.97 1015 10 16.09344 0 0
2:53 am 02:53 Clear 81 27.2 59 15 47 47 Calm 29.97 1015 10 16.09344 0 0
3:53 am 03:53 Clear 80 26.7 60 15.6 51 51 NW 5 7 30 1016 10 16.09344 0 0
4:53 am 04:53 Clear 79 26.1 60 15.6 52 52 NNW 5 7 30 1016 10 16.09344 0 0
5:53 am 05:53 Sunny 78 25.6 60 15.6 54 54 N 5 7 30 1016 10 16.09344 0 0
6:53 am 06:53 Sunny 80 26.7 59 15 49 49 NNE 3 6 30.03 1017 10 16.09344 0 0
7:53 am 07:53 Sunny 83 28.3 58 14.4 43 43 Calm 30.03 1017 10 16.09344 0 0
8:53 am 08:53 Sunny 86 30 59 15 40 40 Calm 30.03 1017 10 16.09344 0 0
9:54 am 09:54 undefined 88 31.1 57 13.9 35 35 SSE 6 9 30.03 1017 N/A 0 0
10:53 am 10:53 Sunny 93 33.9 56 13.3 29 29 Calm 30.03 1017 10 16.09344 0 0
11:53 am 11:53 Sunny 94 34.4 56 13.3 28 28 N 7 11 30 1016 10 16.09344 0 0
12:53 pm 12:53 Sunny 96 35.6 55 12.8 25 25 S 9 15 29.97 1015 10 16.09344 0 0
1:53 pm 13:53 Sunny 98 36.7 53 11.7 22 22 SSE 8 13 29.97 1015 10 16.09344 0 0
2:53 pm 14:53 Sunny 100 37.8 54 12.2 21 21 Calm 29.94 1014 10 16.09344 0 0
3:53 pm 15:53 Sunny 101 38.3 54 12.2 21 21 N 7 11 29.91 1013 10 16.09344 0 0
5:53 pm 17:53 Sunny 103 39.4 51 10.6 18 18 E 6 9 29.88 1012 10 16.09344 0 0
6:53 pm 18:53 Sunny 101 38.3 50 10 18 18 E 3 6 29.88 1012 10 16.09344 0 0
7:53 pm 19:53 Sunny 100 37.8 50 10 18 18 Calm 29.88 1012 10 16.09344 0 0
8:53 pm 20:53 Clear 98 36.7 50 10 20 20 SE 3 6 29.88 1012 10 16.09344 0 0
9:53 pm 21:53 Clear 99 37.2 52 11.1 21 21 Calm 29.91 1013 10 16.09344 0 0
10:53 pm 22:53 Partly Cloudy 96 35.6 54 12.2 24 24 NNW 20 31 29.91 1013 10 16.09344 0 0
11:53 pm 23:53 Clear 93 33.9 54 12.2 27 27 NNW 15 24 29.94 1014 10 16.09344 0 0

Powered by AerisWeather